Auxier, Kentucky
Current Conditions -  °F | °C
As of 7:15 AM on Tuesday 27 Jan 2015 (Local Time) from KSJS Reporting Station
Overcast Overcast  
Wind Chill: 25°   Ceiling: 2600
Heat Index: 25°   Visibility: 10mi
Dew Point: 22°   Wind: 0mph
Humidity: 90%   Direction: NA
Pressure: 29.92"   Gusts: NA
Location:  37.74°N, 82.76°W
Report Text: KSJS 271215Z AUTO 00000KT 10SM OVC026 M04/M05 A2992 RMK AO2 T10411055
Loading
Personal Weather Stations






























Interactive Weather Map New forecast layout! Learn more

10-Day Weather Forecast

Advertisements
Track Severe Weather on mobile